createdAt,value
2019-03-21T08:45:37.606Z,4.77
2019-03-21T08:48:06.630Z,4.20
2019-03-21T08:50:35.674Z,3.63
2019-03-21T08:53:04.480Z,7.03
2019-03-21T08:55:33.475Z,4.00
2019-03-21T08:58:02.407Z,3.73
2019-03-21T09:00:34.503Z,3.90
2019-03-21T09:03:01.896Z,3.40
2019-03-21T09:05:30.768Z,3.40
2019-03-21T09:07:59.421Z,3.20
2019-03-21T09:10:28.297Z,3.40
2019-03-21T09:12:57.241Z,3.67
2019-03-21T09:15:26.276Z,3.53
2019-03-21T09:17:55.732Z,4.30
2019-03-21T09:20:24.880Z,3.13
2019-03-21T09:22:54.004Z,3.80
2019-03-21T09:25:23.332Z,3.30
2019-03-21T09:28:02.216Z,3.50
2019-03-21T09:30:23.298Z,3.43
2019-03-21T09:32:52.498Z,3.00
2019-03-21T09:35:21.407Z,3.67
2019-03-21T09:37:50.231Z,3.73
2019-03-21T09:40:19.046Z,4.07
2019-03-21T09:42:48.201Z,3.30
2019-03-21T09:45:16.997Z,3.17
2019-03-21T09:47:46.210Z,3.57
2019-03-21T09:50:18.790Z,3.00
2019-03-21T09:52:48.140Z,3.07
2019-03-21T09:55:17.186Z,3.97
2019-03-21T09:57:45.830Z,5.47
2019-03-21T10:00:17.743Z,4.00
2019-03-21T10:02:46.610Z,4.33
2019-03-21T10:05:16.134Z,4.17
2019-03-21T10:07:45.331Z,4.87
2019-03-21T10:10:17.760Z,4.70
2019-03-21T10:12:47.086Z,4.53
2019-03-21T10:15:15.889Z,5.70
2019-03-21T10:17:44.690Z,5.77
2019-03-21T10:20:14.008Z,6.10
2019-03-21T10:22:43.003Z,6.90
2019-03-21T10:25:12.002Z,6.47
2019-03-21T10:27:41.153Z,6.13
2019-03-21T10:30:11.424Z,7.03
2019-03-21T10:32:40.816Z,6.23
2019-03-21T10:35:09.766Z,6.43
2019-03-21T10:37:39.275Z,6.63
2019-03-21T10:40:08.291Z,8.30
2019-03-21T10:42:37.927Z,6.23
2019-03-21T10:45:07.662Z,6.70
2019-03-21T10:47:36.857Z,7.13
2019-03-21T10:50:06.799Z,6.00
2019-03-21T10:52:36.057Z,6.00
2019-03-21T10:55:06.539Z,6.10
2019-03-21T10:57:36.028Z,5.93
2019-03-21T11:00:08.032Z,6.43
2019-03-21T11:02:37.796Z,6.87
2019-03-21T11:05:07.002Z,6.23
2019-03-21T11:07:36.462Z,6.70
2019-03-21T11:10:06.873Z,5.73
2019-03-21T11:12:35.915Z,5.83
2019-03-21T11:15:06.203Z,5.37
2019-03-21T11:17:35.848Z,5.73
2019-03-21T11:20:06.573Z,6.10
2019-03-21T11:22:35.512Z,5.83
2019-03-21T11:25:06.933Z,6.33
2019-03-21T11:27:36.035Z,7.03
2019-03-21T11:30:16.058Z,6.67
2019-03-21T11:32:39.532Z,12.20
2019-03-21T11:35:08.500Z,8.70
2019-03-21T11:37:37.495Z,15.80
2019-03-21T11:40:06.385Z,16.33
2019-03-21T11:42:35.583Z,19.67
2019-03-21T11:45:06.841Z,14.90
2019-03-21T11:47:41.690Z,15.53
2019-03-21T11:50:06.859Z,12.67
2019-03-21T11:52:36.007Z,13.57
